Weather at Ciampino–G. B. Pastine International Airport

Public forecast

Using degrees Celsius for public forecast. Weather courtesy of forecast.io.

Current aviation weather report (METAR) for Ciampino–G. B. Pastine International Airport

Retrieved 2022/05/24 02:20 UTC (2 minutes ago):

LIRA 240220Z VRB01KT CAVOK 17/08 Q1010

Aviation forecast (TAF) for Ciampino–G. B. Pastine International Airport

Retrieved 2022-05-24 00:00 UTC (2 hours ago):

TAF LIRA 232300Z 2400/2424 VRB05KT CAVOK BECMG 2407/2409 16012KT BECMG 2418/2420 VRB05KT